Time;durP1;ratioP1;P1;durP2;ratioP2;P2;SDS_P1;SDS_P2;PMS_P1;PMS_P2;Temp;Humidity;BMP_temperature;BMP_pressure;BME280_temperature;BME280_humidity;BME280_pressure;Samples;Min_cycle;Max_cycle;Signal;HPM_P1;HPM_P2
2023/12/03 00:02:08;;;;;;;28.97;17.07;;;0.90;99.90;;;;;;5034409;28;20639;-71
2023/12/03 00:04:34;;;;;;;26.23;16.97;;;0.90;99.90;;;;;;5033883;28;20238;-70
2023/12/03 00:07:00;;;;;;;25.13;16.80;;;0.90;99.90;;;;;;5033478;28;20187;-71
2023/12/03 00:09:25;;;;;;;29.87;17.20;;;1.00;99.90;;;;;;5033461;28;20172;-70
2023/12/03 00:11:51;;;;;;;27.73;17.63;;;1.00;99.90;;;;;;5033567;28;20180;-71
2023/12/03 00:14:17;;;;;;;29.03;17.30;;;1.00;99.90;;;;;;5014660;28;20179;-71
2023/12/03 00:16:42;;;;;;;28.33;17.60;;;1.00;99.90;;;;;;5013973;28;20554;-71
2023/12/03 00:19:08;;;;;;;26.27;16.47;;;1.00;99.90;;;;;;5013647;28;20204;-71
2023/12/03 00:21:33;;;;;;;30.27;17.70;;;1.00;99.90;;;;;;5013578;28;20532;-71
2023/12/03 00:23:59;;;;;;;28.40;17.43;;;1.00;99.90;;;;;;5013675;28;20257;-71
2023/12/03 00:26:25;;;;;;;29.60;16.97;;;1.00;99.90;;;;;;5013512;28;20232;-70
2023/12/03 00:28:50;;;;;;;23.37;16.07;;;1.10;99.90;;;;;;5013627;28;20165;-71
2023/12/03 00:31:16;;;;;;;24.97;16.37;;;1.00;99.90;;;;;;5013731;28;20234;-71
2023/12/03 00:33:41;;;;;;;30.17;16.53;;;1.00;99.90;;;;;;5013531;28;20199;-71
2023/12/03 00:36:07;;;;;;;32.47;16.97;;;1.00;99.90;;;;;;5013228;28;20211;-71
2023/12/03 00:38:33;;;;;;;26.03;16.23;;;1.00;99.90;;;;;;5013480;28;20713;-71
2023/12/03 00:40:58;;;;;;;24.63;16.47;;;1.00;99.90;;;;;;5013510;28;20180;-71
2023/12/03 00:43:24;;;;;;;24.30;15.23;;;1.00;99.90;;;;;;5013251;28;20176;-71
2023/12/03 00:45:51;;;;;;;25.83;16.27;;;1.00;99.90;;;;;;5023309;28;20192;-71
2023/12/03 00:48:17;;;;;;;27.87;17.10;;;1.00;99.90;;;;;;5031563;28;20651;-71
2023/12/03 00:50:43;;;;;;;28.67;17.30;;;1.00;99.90;;;;;;5032815;28;20175;-71
2023/12/03 00:53:08;;;;;;;29.13;17.00;;;1.00;99.90;;;;;;5032956;28;20596;-70
2023/12/03 00:55:34;;;;;;;28.47;16.50;;;1.00;99.90;;;;;;5032677;28;20209;-71
2023/12/03 00:57:59;;;;;;;28.33;17.50;;;1.00;99.90;;;;;;5032756;28;20564;-71
2023/12/03 01:00:25;;;;;;;25.03;16.20;;;1.00;99.90;;;;;;5032207;28;20214;-70
2023/12/03 01:02:50;;;;;;;25.63;16.90;;;1.00;99.90;;;;;;5032721;28;20222;-71
2023/12/03 01:05:17;;;;;;;29.23;17.37;;;1.10;99.90;;;;;;5032436;28;20634;-70
2023/12/03 01:07:42;;;;;;;25.43;16.83;;;1.10;99.90;;;;;;5032595;28;20163;-71
2023/12/03 01:10:08;;;;;;;24.73;16.03;;;1.20;99.90;;;;;;5015296;28;20259;-71
2023/12/03 01:12:34;;;;;;;29.67;16.23;;;1.30;99.90;;;;;;5012740;28;20176;-71
2023/12/03 01:14:59;;;;;;;34.60;17.30;;;1.30;99.90;;;;;;5012702;28;20268;-70
2023/12/03 01:17:25;;;;;;;26.77;16.30;;;1.30;99.90;;;;;;5012793;28;20468;-70
2023/12/03 01:19:51;;;;;;;23.93;17.07;;;1.30;99.90;;;;;;5012845;28;20203;-70
2023/12/03 01:22:16;;;;;;;25.97;17.57;;;1.30;99.90;;;;;;5012875;28;20649;-70
2023/12/03 01:24:42;;;;;;;29.80;17.63;;;1.30;99.90;;;;;;5029443;28;20176;-71
2023/12/03 01:27:07;;;;;;;28.20;15.93;;;1.40;99.90;;;;;;5032816;28;20168;-70
2023/12/03 01:29:33;;;;;;;29.10;16.73;;;1.40;99.90;;;;;;5031882;28;20211;-70
2023/12/03 01:31:58;;;;;;;28.07;16.83;;;1.40;99.90;;;;;;5032272;28;20177;-70
2023/12/03 01:34:24;;;;;;;29.33;18.00;;;1.40;99.90;;;;;;5032113;28;20245;-70
2023/12/03 01:36:50;;;;;;;24.30;15.33;;;1.40;99.90;;;;;;5025873;28;20208;-70
2023/12/03 01:39:15;;;;;;;26.73;17.03;;;1.30;99.90;;;;;;5011609;28;20258;-70
2023/12/03 01:41:41;;;;;;;26.17;17.20;;;1.30;99.90;;;;;;5011689;28;20437;-70
2023/12/03 01:44:07;;;;;;;30.53;18.37;;;1.30;99.90;;;;;;5011312;28;20239;-70
2023/12/03 01:46:33;;;;;;;26.03;16.33;;;1.30;99.90;;;;;;5012291;28;20274;-70
2023/12/03 01:48:59;;;;;;;25.77;17.00;;;1.30;99.90;;;;;;5011976;28;20219;-70
2023/12/03 01:51:24;;;;;;;30.77;18.07;;;1.40;99.90;;;;;;5011952;28;20173;-70
2023/12/03 01:53:51;;;;;;;27.20;18.13;;;1.40;99.90;;;;;;5012045;28;20230;-70
2023/12/03 01:56:17;;;;;;;26.87;16.17;;;1.30;99.90;;;;;;5011855;28;20543;-70
2023/12/03 01:58:42;;;;;;;29.33;17.37;;;1.30;99.90;;;;;;5011990;28;20261;-70
2023/12/03 02:01:08;;;;;;;26.90;17.20;;;1.30;99.90;;;;;;5011845;28;20223;-70
2023/12/03 02:03:34;;;;;;;23.67;15.47;;;1.40;99.90;;;;;;5013402;28;20177;-70
2023/12/03 02:06:08;;;;;;;24.53;16.20;;;1.30;99.90;;;;;;5031706;28;20879;-70
2023/12/03 02:08:34;;;;;;;28.00;17.37;;;1.30;99.90;;;;;;5031584;28;20179;-70
2023/12/03 02:11:02;;;;;;;23.30;15.53;;;1.30;99.90;;;;;;5031458;28;20170;-70
2023/12/03 02:13:31;;;;;;;22.93;15.40;;;1.20;99.90;;;;;;5031347;28;20172;-70
2023/12/03 02:15:57;;;;;;;27.93;15.60;;;1.30;99.90;;;;;;5031058;28;20588;-70
2023/12/03 02:18:24;;;;;;;23.50;15.53;;;1.30;99.90;;;;;;5031366;28;20591;-70
2023/12/03 02:20:49;;;;;;;25.40;14.63;;;1.20;99.90;;;;;;5031323;28;20179;-70
2023/12/03 02:23:15;;;;;;;25.30;16.07;;;1.20;99.90;;;;;;5031525;28;20667;-70
2023/12/03 02:25:41;;;;;;;23.63;15.63;;;1.20;99.90;;;;;;5031211;28;20561;-70
2023/12/03 02:28:07;;;;;;;23.30;14.80;;;1.20;99.90;;;;;;5031313;28;20170;-70
2023/12/03 02:30:33;;;;;;;22.60;15.63;;;1.20;99.90;;;;;;5028535;28;20168;-70
2023/12/03 02:32:58;;;;;;;24.73;15.60;;;1.20;99.90;;;;;;5011705;28;20688;-70
2023/12/03 02:35:24;;;;;;;22.67;14.20;;;1.10;99.90;;;;;;5011337;28;20196;-70
2023/12/03 02:37:50;;;;;;;23.37;15.30;;;1.10;99.90;;;;;;5011709;28;20218;-70
2023/12/03 02:40:15;;;;;;;23.93;14.30;;;1.10;99.90;;;;;;5011357;28;20211;-70
2023/12/03 02:42:41;;;;;;;23.37;15.10;;;1.00;99.90;;;;;;5010284;28;20223;-70
2023/12/03 02:45:08;;;;;;;23.00;14.27;;;1.00;99.90;;;;;;5012601;28;20199;-70
2023/12/03 02:47:34;;;;;;;26.43;15.60;;;0.90;99.90;;;;;;5032666;28;20239;-71
2023/12/03 02:50:00;;;;;;;22.27;15.27;;;0.80;99.90;;;;;;5030823;28;20179;-70
2023/12/03 02:52:25;;;;;;;21.70;15.43;;;0.80;99.90;;;;;;5030800;28;20377;-71
2023/12/03 02:54:51;;;;;;;23.63;14.70;;;0.80;99.90;;;;;;5029748;28;20591;-70
2023/12/03 02:57:17;;;;;;;22.03;14.43;;;0.80;99.90;;;;;;5033024;28;20183;-70
2023/12/03 02:59:42;;;;;;;24.47;14.53;;;0.70;99.90;;;;;;5022989;28;20211;-70
2023/12/03 03:02:08;;;;;;;21.97;14.60;;;0.80;99.90;;;;;;5015302;28;20557;-70
2023/12/03 03:04:33;;;;;;;24.13;15.33;;;0.80;99.90;;;;;;5016178;28;20557;-70
2023/12/03 03:06:59;;;;;;;26.03;14.97;;;0.80;99.90;;;;;;5015201;28;20199;-70
2023/12/03 03:09:24;;;;;;;24.37;15.33;;;0.80;99.90;;;;;;5014868;28;20180;-70
2023/12/03 03:11:52;;;;;;;25.97;16.07;;;0.70;99.90;;;;;;5014912;28;20255;-70
2023/12/03 03:14:18;;;;;;;22.47;14.37;;;0.70;99.90;;;;;;5013705;28;20176;-70
2023/12/03 03:16:44;;;;;;;23.37;15.37;;;0.70;99.90;;;;;;5015367;28;20285;-70
2023/12/03 03:19:10;;;;;;;27.00;16.43;;;0.60;99.90;;;;;;5032411;28;20249;-70
2023/12/03 03:21:39;;;;;;;23.50;14.40;;;0.60;99.90;;;;;;5034517;28;20172;-70
2023/12/03 03:24:05;;;;;;;25.13;14.70;;;0.50;99.90;;;;;;5034673;28;20581;-70
2023/12/03 03:26:31;;;;;;;26.03;14.33;;;0.50;99.90;;;;;;5033265;28;20270;-70
2023/12/03 03:28:56;;;;;;;22.23;13.57;;;0.50;99.90;;;;;;5034883;28;20266;-70
2023/12/03 03:31:22;;;;;;;23.03;16.00;;;0.40;99.90;;;;;;5028107;28;20183;-70
2023/12/03 03:33:51;;;;;;;22.53;14.40;;;0.40;99.90;;;;;;5014454;28;20215;-70
2023/12/03 03:36:17;;;;;;;29.07;15.07;;;0.40;99.90;;;;;;5014619;28;20265;-70
2023/12/03 03:38:43;;;;;;;22.73;14.47;;;0.40;99.90;;;;;;5014546;28;20299;-70
2023/12/03 03:41:10;;;;;;;23.40;15.33;;;0.50;99.90;;;;;;5014458;28;20187;-70
2023/12/03 03:43:35;;;;;;;22.77;14.70;;;0.50;99.90;;;;;;5014345;28;20199;-70
2023/12/03 03:46:01;;;;;;;21.47;13.97;;;0.50;99.90;;;;;;5014443;28;20679;-70
2023/12/03 03:48:26;;;;;;;23.40;14.63;;;0.60;99.90;;;;;;5014492;28;20187;-70
2023/12/03 03:50:52;;;;;;;22.47;14.87;;;0.60;99.90;;;;;;5014467;28;20203;-70
2023/12/03 03:53:18;;;;;;;24.23;15.03;;;0.70;99.90;;;;;;5014380;28;20187;-70
2023/12/03 03:55:43;;;;;;;23.53;14.50;;;0.70;99.90;;;;;;5014252;28;20232;-70
2023/12/03 03:58:09;;;;;;;24.47;14.67;;;0.80;99.90;;;;;;5014439;28;20168;-70
2023/12/03 04:00:34;;;;;;;23.20;13.80;;;0.80;99.90;;;;;;5029317;28;20221;-70
2023/12/03 04:03:00;;;;;;;23.50;15.23;;;0.80;99.90;;;;;;5032992;28;20709;-70
2023/12/03 04:05:26;;;;;;;23.60;13.40;;;0.90;99.90;;;;;;5033858;28;20192;-70
2023/12/03 04:07:51;;;;;;;20.50;14.40;;;0.90;99.90;;;;;;5034650;28;20183;-70
2023/12/03 04:10:17;;;;;;;22.03;13.67;;;0.90;99.90;;;;;;5034890;28;20171;-70
2023/12/03 04:12:43;;;;;;;19.67;13.60;;;0.90;99.90;;;;;;5033902;28;20517;-70
2023/12/03 04:15:09;;;;;;;19.70;12.63;;;0.90;99.90;;;;;;5033964;28;20503;-70
2023/12/03 04:17:35;;;;;;;18.00;11.97;;;0.90;99.90;;;;;;5033703;28;20171;-70
2023/12/03 04:20:00;;;;;;;17.47;12.47;;;0.90;99.90;;;;;;5033452;28;20207;-70
2023/12/03 04:22:26;;;;;;;20.63;13.10;;;0.90;99.90;;;;;;5014120;28;20184;-70
2023/12/03 04:24:51;;;;;;;20.27;11.43;;;1.00;99.90;;;;;;5013852;28;20200;-70
2023/12/03 04:27:17;;;;;;;19.60;12.30;;;1.00;99.90;;;;;;5018589;28;20190;-70
2023/12/03 04:29:43;;;;;;;16.17;11.70;;;1.00;99.90;;;;;;5033889;28;20651;-70
2023/12/03 04:32:09;;;;;;;17.37;11.60;;;1.00;99.90;;;;;;5033763;28;20191;-70
2023/12/03 04:34:35;;;;;;;17.70;12.27;;;1.00;99.90;;;;;;5033736;28;20645;-70
2023/12/03 04:37:00;;;;;;;20.53;13.97;;;1.00;99.90;;;;;;5033529;28;20353;-70
2023/12/03 04:39:26;;;;;;;17.47;13.63;;;1.00;99.90;;;;;;5033359;28;20219;-70
2023/12/03 04:41:52;;;;;;;19.97;14.13;;;1.00;99.90;;;;;;5032932;28;20262;-70
2023/12/03 04:44:17;;;;;;;19.13;13.73;;;1.10;99.90;;;;;;5033369;28;20174;-70
2023/12/03 04:46:43;;;;;;;16.67;13.13;;;1.10;99.90;;;;;;5031982;28;20694;-70
2023/12/03 04:49:09;;;;;;;14.60;11.60;;;1.10;99.90;;;;;;5033384;28;20179;-70
2023/12/03 04:51:34;;;;;;;17.00;13.00;;;1.10;99.90;;;;;;5033044;28;20184;-70
2023/12/03 04:54:00;;;;;;;21.50;13.40;;;1.00;99.90;;;;;;5033227;28;20179;-70
2023/12/03 04:56:26;;;;;;;16.63;12.47;;;1.00;99.90;;;;;;5017397;28;20228;-70
2023/12/03 04:58:51;;;;;;;17.47;12.23;;;1.00;99.90;;;;;;5013529;28;20624;-70
2023/12/03 05:01:17;;;;;;;19.23;13.50;;;0.90;99.90;;;;;;5013129;28;20586;-70
2023/12/03 05:03:43;;;;;;;18.73;11.97;;;0.80;99.90;;;;;;5011656;28;20176;-70
2023/12/03 05:06:09;;;;;;;17.80;12.70;;;0.80;99.90;;;;;;5013024;28;20282;-70
2023/12/03 05:08:34;;;;;;;15.17;11.33;;;0.80;99.90;;;;;;5013026;28;20172;-70
2023/12/03 05:11:04;;;;;;;19.37;11.93;;;0.80;99.90;;;;;;5012702;28;20180;-70
2023/12/03 05:13:30;;;;;;;19.70;12.60;;;0.70;99.90;;;;;;5015302;28;20180;-70
2023/12/03 05:15:56;;;;;;;22.53;15.27;;;0.70;99.90;;;;;;5032615;28;20195;-70
2023/12/03 05:18:21;;;;;;;20.57;14.70;;;0.70;99.90;;;;;;5032601;28;20614;-70
2023/12/03 05:20:51;;;;;;;19.77;12.50;;;0.60;99.90;;;;;;5031741;28;20698;-70
2023/12/03 05:23:16;;;;;;;17.00;12.67;;;0.60;99.90;;;;;;5028118;28;20234;-70
2023/12/03 05:25:42;;;;;;;21.37;13.60;;;0.50;99.90;;;;;;5012750;28;20192;-70
2023/12/03 05:28:08;;;;;;;16.07;12.03;;;0.50;99.90;;;;;;5013013;28;20176;-70
2023/12/03 05:30:33;;;;;;;18.33;13.57;;;0.40;99.90;;;;;;5013057;28;20250;-70
2023/12/03 05:32:59;;;;;;;21.13;14.77;;;0.40;99.90;;;;;;5013402;28;20178;-70
2023/12/03 05:35:24;;;;;;;17.13;12.57;;;0.40;99.90;;;;;;5012333;28;20698;-70
2023/12/03 05:37:50;;;;;;;24.00;15.57;;;0.40;99.90;;;;;;5012802;28;20208;-70
2023/12/03 05:40:16;;;;;;;19.97;14.33;;;0.40;99.90;;;;;;5012117;28;20208;-70
2023/12/03 05:42:41;;;;;;;16.93;13.10;;;0.30;99.90;;;;;;5012555;28;20267;-70
2023/12/03 05:45:08;;;;;;;15.70;12.10;;;0.30;99.90;;;;;;5012466;28;20203;-70
2023/12/03 05:47:34;;;;;;;18.40;12.93;;;0.20;99.90;;;;;;5012604;28;20204;-70
2023/12/03 05:50:01;;;;;;;17.50;12.80;;;0.10;99.90;;;;;;5012332;28;20239;-70
2023/12/03 05:52:29;;;;;;;16.97;11.77;;;0.00;99.90;;;;;;5025361;28;20198;-70
2023/12/03 05:54:55;;;;;;;17.40;11.83;;;-0.10;99.90;;;;;;5031997;28;20183;-69
2023/12/03 05:57:20;;;;;;;17.47;12.17;;;-0.20;99.90;;;;;;5032091;28;20168;-69
2023/12/03 05:59:47;;;;;;;16.03;12.20;;;-0.20;99.90;;;;;;5031820;28;20294;-69
2023/12/03 06:02:13;;;;;;;18.83;12.47;;;-0.20;99.90;;;;;;5030436;28;20193;-69
2023/12/03 06:04:39;;;;;;;20.67;12.77;;;-0.10;99.90;;;;;;5031762;28;20534;-69
2023/12/03 06:07:05;;;;;;;19.63;12.13;;;-0.10;99.90;;;;;;5031654;28;20175;-69
2023/12/03 06:09:31;;;;;;;17.03;11.90;;;-0.10;99.90;;;;;;5031846;28;20178;-69
2023/12/03 06:11:56;;;;;;;21.97;13.20;;;-0.10;99.90;;;;;;5031529;28;20314;-69
2023/12/03 06:14:22;;;;;;;19.33;13.33;;;-0.20;99.90;;;;;;5032086;28;20183;-69
2023/12/03 06:16:48;;;;;;;20.97;12.93;;;-0.10;99.90;;;;;;5031351;28;20666;-69
2023/12/03 06:19:13;;;;;;;20.93;12.73;;;-0.20;99.90;;;;;;5027834;28;20270;-69
2023/12/03 06:21:39;;;;;;;20.97;13.03;;;-0.20;99.90;;;;;;5011578;28;20286;-69
2023/12/03 06:24:05;;;;;;;17.17;12.33;;;-0.30;99.90;;;;;;5011983;28;20389;-69
2023/12/03 06:26:31;;;;;;;18.70;11.67;;;-0.30;99.90;;;;;;5011826;28;20573;-70
2023/12/03 06:28:57;;;;;;;18.47;12.80;;;-0.30;99.90;;;;;;5011453;28;20476;-70
2023/12/03 06:31:23;;;;;;;18.13;12.30;;;-0.30;99.90;;;;;;5011594;28;20196;-69
2023/12/03 06:33:48;;;;;;;19.47;12.53;;;-0.30;99.90;;;;;;5011949;28;20218;-69
2023/12/03 06:36:14;;;;;;;18.87;11.93;;;-0.40;99.90;;;;;;5011627;28;20216;-70
2023/12/03 06:38:40;;;;;;;14.80;12.00;;;-0.40;99.90;;;;;;5011238;28;20228;-69
2023/12/03 06:41:05;;;;;;;20.77;12.87;;;-0.40;99.90;;;;;;5010141;28;20176;-69
2023/12/03 06:43:31;;;;;;;18.90;13.27;;;-0.40;99.90;;;;;;5011266;28;20259;-69
2023/12/03 06:45:59;;;;;;;16.07;11.73;;;-0.50;99.90;;;;;;5011633;28;20192;-69
2023/12/03 06:48:24;;;;;;;18.07;12.47;;;-0.50;99.90;;;;;;5013758;28;20519;-69
2023/12/03 06:50:50;;;;;;;18.37;12.60;;;-0.50;99.90;;;;;;5012562;28;20180;-69
2023/12/03 06:53:16;;;;;;;17.50;12.80;;;-0.60;99.90;;;;;;5013884;28;20168;-69
2023/12/03 06:55:41;;;;;;;17.67;13.00;;;-0.60;99.90;;;;;;5013639;28;20191;-70
2023/12/03 06:58:07;;;;;;;16.37;12.10;;;-0.60;99.90;;;;;;5012197;28;20187;-69
2023/12/03 07:00:33;;;;;;;15.53;12.20;;;-0.70;99.90;;;;;;5011231;28;20298;-69
2023/12/03 07:02:59;;;;;;;17.73;11.50;;;-0.70;99.90;;;;;;5011707;28;20175;-70
2023/12/03 07:05:25;;;;;;;19.30;13.00;;;-0.70;99.90;;;;;;5012043;28;20659;-70
2023/12/03 07:07:51;;;;;;;19.20;12.43;;;-0.70;99.90;;;;;;5012306;28;20231;-70
2023/12/03 07:10:17;;;;;;;17.97;13.53;;;-0.60;99.90;;;;;;5011703;28;20172;-70
2023/12/03 07:12:43;;;;;;;19.60;13.07;;;-0.60;99.90;;;;;;5015631;28;20191;-70
2023/12/03 07:15:09;;;;;;;22.37;14.87;;;-0.50;99.90;;;;;;5028654;28;20191;-70
2023/12/03 07:17:34;;;;;;;18.90;12.70;;;-0.40;99.90;;;;;;5011858;28;20580;-69
2023/12/03 07:20:00;;;;;;;23.10;14.10;;;-0.30;99.90;;;;;;5010991;28;20667;-70
2023/12/03 07:22:26;;;;;;;22.73;14.00;;;-0.20;99.90;;;;;;5010775;28;20211;-70
2023/12/03 07:24:53;;;;;;;18.97;12.53;;;-0.20;99.90;;;;;;5011257;28;20204;-70
2023/12/03 07:27:18;;;;;;;17.30;12.87;;;-0.10;99.90;;;;;;5011068;28;20517;-70
2023/12/03 07:29:45;;;;;;;18.43;12.97;;;-0.10;99.90;;;;;;5011035;28;20187;-70
2023/12/03 07:32:10;;;;;;;21.77;13.30;;;0.00;99.90;;;;;;5030412;28;20171;-70
2023/12/03 07:34:36;;;;;;;17.60;12.80;;;0.00;99.90;;;;;;5030461;28;20646;-70
2023/12/03 07:37:05;;;;;;;19.33;11.97;;;0.00;99.90;;;;;;5030092;28;20294;-70
2023/12/03 07:39:30;;;;;;;19.40;12.70;;;-0.10;99.90;;;;;;5030518;28;20199;-70
2023/12/03 07:41:56;;;;;;;17.63;11.93;;;-0.20;99.90;;;;;;5030437;28;20302;-70
2023/12/03 07:44:22;;;;;;;15.67;12.17;;;-0.20;99.90;;;;;;5032499;28;20183;-70
2023/12/03 07:46:48;;;;;;;17.27;12.83;;;-0.30;99.90;;;;;;5034054;28;20210;-70
2023/12/03 07:49:14;;;;;;;24.57;13.37;;;-0.40;99.90;;;;;;5034412;28;20238;-70
2023/12/03 07:51:40;;;;;;;26.27;15.80;;;-0.40;99.90;;;;;;5033842;28;20190;-71
2023/12/03 07:54:05;;;;;;;23.97;14.40;;;-0.50;99.90;;;;;;5034042;28;20189;-70
2023/12/03 07:56:38;;;;;;;22.87;13.73;;;-0.50;99.90;;;;;;5033662;28;20271;-69
2023/12/03 07:59:04;;;;;;;21.93;14.00;;;-0.50;99.90;;;;;;5033593;28;20701;-70
2023/12/03 08:01:29;;;;;;;22.03;13.47;;;-0.50;99.90;;;;;;5033806;28;20192;-70
2023/12/03 08:03:55;;;;;;;22.33;14.07;;;-0.60;99.90;;;;;;5033565;28;20167;-69
2023/12/03 08:06:21;;;;;;;22.83;14.20;;;-0.60;99.90;;;;;;5034057;28;20188;-69
2023/12/03 08:08:46;;;;;;;18.67;13.27;;;-0.50;99.90;;;;;;5033686;28;20254;-70
2023/12/03 08:11:12;;;;;;;27.83;16.03;;;-0.50;99.90;;;;;;5031906;28;20258;-70
2023/12/03 08:13:38;;;;;;;28.33;14.70;;;-0.50;99.90;;;;;;5013798;28;20252;-69
2023/12/03 08:16:04;;;;;;;24.43;15.07;;;-0.50;99.90;;;;;;5014144;28;20576;-69
2023/12/03 08:18:33;;;;;;;26.50;15.47;;;-0.40;99.90;;;;;;5014123;28;20196;-71
2023/12/03 08:20:59;;;;;;;22.03;13.87;;;-0.40;99.90;;;;;;5013148;28;20172;-69
2023/12/03 08:23:28;;;;;;;21.50;13.53;;;-0.40;99.90;;;;;;5013703;28;20644;-69
2023/12/03 08:25:54;;;;;;;20.90;14.07;;;-0.30;99.90;;;;;;5013336;28;20200;-69
2023/12/03 08:28:19;;;;;;;25.67;14.90;;;-0.30;99.90;;;;;;5013646;28;20169;-69
2023/12/03 08:30:45;;;;;;;23.60;14.77;;;-0.20;99.90;;;;;;5013265;28;20164;-69
2023/12/03 08:33:11;;;;;;;23.20;14.37;;;-0.10;99.90;;;;;;5012301;28;20172;-69
2023/12/03 08:35:36;;;;;;;21.60;13.50;;;0.00;99.90;;;;;;5013050;28;20211;-70
2023/12/03 08:38:02;;;;;;;23.07;13.90;;;0.10;99.90;;;;;;5013276;28;20173;-69
2023/12/03 08:40:28;;;;;;;23.33;14.50;;;0.20;99.90;;;;;;5014048;28;20211;-69
2023/12/03 08:42:53;;;;;;;29.50;16.03;;;0.30;99.90;;;;;;5013204;28;20175;-69
2023/12/03 08:45:19;;;;;;;26.67;15.00;;;0.40;99.90;;;;;;5013368;28;20192;-69
2023/12/03 08:47:44;;;;;;;24.53;15.67;;;0.50;99.90;;;;;;5013194;28;20180;-70
2023/12/03 08:50:10;;;;;;;28.77;15.80;;;0.60;99.90;;;;;;5013131;28;20234;-69
2023/12/03 08:52:36;;;;;;;25.93;16.10;;;0.90;99.90;;;;;;5012567;28;20177;-70
2023/12/03 08:55:02;;;;;;;27.90;14.87;;;1.20;99.90;;;;;;5011894;28;20219;-69
2023/12/03 08:57:28;;;;;;;24.30;14.37;;;1.70;99.90;;;;;;5013262;28;20640;-69
2023/12/03 08:59:54;;;;;;;21.13;13.30;;;2.20;99.90;;;;;;5012502;28;20200;-69
2023/12/03 09:02:20;;;;;;;18.13;12.73;;;2.50;99.90;;;;;;5012243;28;20269;-70
2023/12/03 09:04:45;;;;;;;19.63;12.27;;;2.90;99.90;;;;;;5012433;28;20176;-70
2023/12/03 09:07:11;;;;;;;20.27;13.20;;;3.10;99.90;;;;;;5012873;28;20167;-70
2023/12/03 09:09:37;;;;;;;19.40;12.07;;;3.20;99.90;;;;;;5012179;28;20539;-71
2023/12/03 09:12:03;;;;;;;19.67;12.80;;;3.10;99.90;;;;;;5012233;28;20234;-69
2023/12/03 09:14:30;;;;;;;16.57;11.70;;;2.90;99.90;;;;;;5012808;28;20187;-69
2023/12/03 09:16:55;;;;;;;16.33;11.20;;;2.70;99.90;;;;;;5011251;28;20214;-70
2023/12/03 09:19:21;;;;;;;16.87;12.33;;;2.70;99.90;;;;;;5012586;28;20196;-71
2023/12/03 09:21:46;;;;;;;19.13;12.40;;;2.90;99.90;;;;;;5012190;28;20169;-69
2023/12/03 09:24:15;;;;;;;18.93;12.43;;;3.10;99.90;;;;;;5011832;28;20169;-69
2023/12/03 09:26:43;;;;;;;15.20;11.77;;;3.30;99.90;;;;;;5025484;28;20199;-69
2023/12/03 09:29:10;;;;;;;15.03;10.83;;;3.60;99.90;;;;;;5032348;28;20195;-69
2023/12/03 09:31:36;;;;;;;17.27;11.17;;;3.80;99.90;;;;;;5029685;28;20196;-69
2023/12/03 09:34:02;;;;;;;19.27;12.20;;;3.90;99.90;;;;;;5011870;28;20207;-69
2023/12/03 09:36:27;;;;;;;15.40;10.93;;;3.90;99.90;;;;;;5011884;28;20295;-70
2023/12/03 09:38:53;;;;;;;17.23;10.73;;;4.10;99.90;;;;;;5012387;28;20254;-69
2023/12/03 09:41:21;;;;;;;13.33;9.93;;;4.30;99.90;;;;;;5012643;28;20247;-68
2023/12/03 09:43:51;;;;;;;16.60;11.07;;;4.20;99.90;;;;;;5011930;28;20648;-69
2023/12/03 09:46:18;;;;;;;16.43;10.57;;;3.90;99.90;;;;;;5010708;28;20280;-69
2023/12/03 09:48:43;;;;;;;14.70;11.30;;;3.60;99.90;;;;;;5012477;28;20238;-70
2023/12/03 09:51:12;;;;;;;16.73;10.97;;;3.40;99.90;;;;;;5011920;28;20180;-69
2023/12/03 09:53:43;;;;;;;16.10;10.53;;;3.00;99.90;;;;;;5011529;28;20168;-69
2023/12/03 09:56:09;;;;;;;16.43;11.27;;;2.70;99.90;;;;;;5015319;28;20258;-69
2023/12/03 09:58:36;;;;;;;18.03;11.17;;;2.50;99.90;;;;;;5023646;28;20215;-69
2023/12/03 10:01:02;;;;;;;17.53;12.30;;;2.40;99.90;;;;;;5011497;28;20648;-69
2023/12/03 10:03:27;;;;;;;16.20;10.70;;;2.40;99.90;;;;;;5011777;28;20176;-69
2023/12/03 10:05:54;;;;;;;15.93;11.17;;;2.40;99.90;;;;;;5010728;28;20195;-69
2023/12/03 10:08:21;;;;;;;15.73;10.90;;;2.50;99.90;;;;;;5009492;28;20330;-69
2023/12/03 10:10:50;;;;;;;15.43;10.93;;;2.50;99.90;;;;;;5011233;28;20180;-69
2023/12/03 10:13:17;;;;;;;14.87;10.97;;;2.60;99.90;;;;;;5011560;28;20174;-69
2023/12/03 10:15:43;;;;;;;15.97;11.50;;;2.60;99.90;;;;;;5011045;28;20211;-69
2023/12/03 10:18:09;;;;;;;14.30;10.73;;;2.60;99.90;;;;;;5011207;28;20227;-69
2023/12/03 10:20:34;;;;;;;20.90;11.67;;;2.60;99.90;;;;;;5011696;28;20172;-69
2023/12/03 10:23:03;;;;;;;17.00;10.97;;;2.50;99.90;;;;;;5011756;28;20179;-69
2023/12/03 10:25:34;;;;;;;12.87;11.03;;;2.50;99.90;;;;;;5011355;28;20219;-69
2023/12/03 10:28:01;;;;;;;15.90;10.97;;;2.50;99.90;;;;;;5011292;28;20172;-69
2023/12/03 10:30:27;;;;;;;17.67;11.37;;;2.40;99.90;;;;;;5011117;28;20168;-70
2023/12/03 10:32:53;;;;;;;15.30;12.40;;;2.50;99.90;;;;;;5026023;28;20678;-68
2023/12/03 10:35:20;;;;;;;18.53;12.07;;;2.60;99.90;;;;;;5030571;28;20214;-69
2023/12/03 10:37:46;;;;;;;16.87;11.33;;;2.50;99.90;;;;;;5030892;28;20195;-69
2023/12/03 10:40:11;;;;;;;15.63;11.43;;;2.50;99.90;;;;;;5030668;28;20213;-69
2023/12/03 10:42:38;;;;;;;18.97;11.87;;;2.50;99.90;;;;;;5030484;28;20650;-69
2023/12/03 10:45:10;;;;;;;15.37;11.20;;;2.40;99.90;;;;;;5020696;28;20188;-70
2023/12/03 10:47:37;;;;;;;15.67;11.57;;;2.30;99.90;;;;;;5011217;28;20183;-70
2023/12/03 10:50:06;;;;;;;19.90;12.43;;;2.40;99.90;;;;;;5013616;28;20180;-69
2023/12/03 10:52:32;;;;;;;17.70;11.10;;;2.40;99.90;;;;;;5028597;28;20651;-69
2023/12/03 10:54:58;;;;;;;15.80;11.40;;;2.40;99.90;;;;;;5011063;28;20544;-70
2023/12/03 10:57:28;;;;;;;15.63;11.93;;;2.50;99.90;;;;;;5011576;28;20187;-70
2023/12/03 11:00:09;;;;;;;15.83;11.37;;;2.70;99.90;;;;;;5009602;28;20215;-70
2023/12/03 11:02:41;;;;;;;16.50;11.47;;;3.00;99.90;;;;;;5022986;28;20172;-70
2023/12/03 11:05:10;;;;;;;16.37;11.00;;;3.40;99.90;;;;;;5011779;28;20184;-71
2023/12/03 11:07:37;;;;;;;16.37;11.67;;;3.60;99.90;;;;;;5011256;28;20181;-70
2023/12/03 11:10:05;;;;;;;14.13;10.97;;;3.70;99.90;;;;;;5010892;28;20624;-70
2023/12/03 11:12:30;;;;;;;18.40;11.47;;;3.70;99.90;;;;;;5018802;28;20182;-70
2023/12/03 11:14:57;;;;;;;15.30;10.93;;;3.70;99.90;;;;;;5029800;28;20549;-69
2023/12/03 11:17:40;;;;;;;14.20;11.37;;;3.60;99.90;;;;;;5025396;28;20180;-70
2023/12/03 11:20:11;;;;;;;18.37;11.13;;;3.70;99.90;;;;;;5020770;28;20208;-70
2023/12/03 11:23:02;;;;;;;17.97;10.53;;;3.70;99.90;;;;;;5030177;28;20178;-70
2023/12/03 11:25:33;;;;;;;13.47;10.80;;;3.60;99.90;;;;;;5028471;28;20191;-70
2023/12/03 11:27:59;;;;;;;17.07;11.70;;;3.70;99.90;;;;;;5032505;28;20710;-70
2023/12/03 11:30:42;;;;;;;16.97;12.07;;;3.80;99.90;;;;;;5019477;28;20318;-70
2023/12/03 11:33:14;;;;;;;15.90;11.87;;;4.00;99.90;;;;;;5033977;28;20666;-70
2023/12/03 11:35:42;;;;;;;13.90;10.53;;;4.20;99.90;;;;;;5033550;28;20686;-70
2023/12/03 11:38:34;;;;;;;14.40;11.27;;;4.30;99.90;;;;;;5022535;28;20746;-70
2023/12/03 11:41:00;;;;;;;14.10;10.23;;;4.50;99.90;;;;;;5013632;28;20196;-71
2023/12/03 11:43:30;;;;;;;14.83;10.77;;;4.50;99.90;;;;;;5014192;28;20487;-70
2023/12/03 11:45:57;;;;;;;16.63;10.03;;;4.60;99.90;;;;;;5026034;28;20236;-70
2023/12/03 11:48:27;;;;;;;13.10;10.57;;;4.50;99.90;;;;;;5014218;28;20228;-71
2023/12/03 11:50:55;;;;;;;13.97;10.53;;;4.20;99.90;;;;;;5014032;28;20541;-71
2023/12/03 11:53:59;;;;;;;15.83;10.93;;;4.10;99.90;;;;;;5014515;28;20624;-70
2023/12/03 11:56:25;;;;;;;14.97;10.90;;;4.00;99.90;;;;;;5013774;28;20207;-70
2023/12/03 11:58:54;;;;;;;13.67;10.93;;;3.90;99.90;;;;;;5013992;28;20203;-70
2023/12/03 12:01:20;;;;;;;17.07;11.17;;;3.80;99.90;;;;;;5014001;28;20168;-70
2023/12/03 12:03:45;;;;;;;13.97;10.37;;;3.80;99.90;;;;;;5013570;28;20172;-71
2023/12/03 12:06:11;;;;;;;15.20;10.97;;;3.90;99.90;;;;;;5013924;28;20318;-70
2023/12/03 12:08:37;;;;;;;17.30;11.63;;;4.00;99.90;;;;;;5019449;28;20179;-69
2023/12/03 12:11:04;;;;;;;14.97;11.97;;;4.00;99.90;;;;;;5027688;28;20560;-70
2023/12/03 12:13:31;;;;;;;16.00;11.23;;;4.20;99.90;;;;;;5033543;28;20187;-70
2023/12/03 12:15:57;;;;;;;13.53;10.13;;;4.40;99.90;;;;;;5033430;28;20195;-70
2023/12/03 12:18:23;;;;;;;12.70;9.67;;;4.60;99.90;;;;;;5033424;28;20690;-70
2023/12/03 12:20:49;;;;;;;14.43;11.50;;;4.80;99.90;;;;;;5033367;28;20167;-70
2023/12/03 12:23:15;;;;;;;15.87;10.77;;;5.00;99.90;;;;;;5033501;28;20174;-70
2023/12/03 12:25:41;;;;;;;13.83;10.73;;;4.90;99.90;;;;;;5022676;28;20258;-70
2023/12/03 12:28:07;;;;;;;16.37;10.97;;;4.60;99.90;;;;;;5013657;28;20219;-70
2023/12/03 12:30:33;;;;;;;14.60;10.47;;;4.40;99.90;;;;;;5013486;28;20180;-70
2023/12/03 12:33:01;;;;;;;13.27;10.03;;;4.40;99.90;;;;;;5013640;28;20223;-70